Time;durP1;ratioP1;P1;durP2;ratioP2;P2;SDS_P1;SDS_P2;PMS_P1;PMS_P2;Temp;Humidity;BMP_temperature;BMP_pressure;BME280_temperature;BME280_humidity;BME280_pressure;Samples;Min_cycle;Max_cycle;Signal;HPM_P1;HPM_P2
2021/03/04 00:02:32;;;;;;;18.95;7.13;;;13.70;48.30;;;;;;6121549;29;20089;-78
2021/03/04 00:05:39;;;;;;;23.85;6.93;;;13.60;48.30;;;;;;6118278;29;20036;-81
2021/03/04 00:08:42;;;;;;;21.20;7.97;;;13.60;48.40;;;;;;6120615;29;20031;-81
2021/03/04 00:11:43;;;;;;;18.92;7.68;;;13.60;48.30;;;;;;6119891;29;20047;-80
2021/03/04 00:14:44;;;;;;;14.20;7.13;;;13.50;48.30;;;;;;6124362;29;20331;-80
2021/03/04 00:17:46;;;;;;;16.60;6.40;;;13.50;48.40;;;;;;6091454;29;20036;-80
2021/03/04 00:20:49;;;;;;;15.65;7.20;;;13.50;48.50;;;;;;6092368;29;20050;-81
2021/03/04 00:23:50;;;;;;;18.73;6.10;;;13.50;48.20;;;;;;6076635;29;20040;-78
2021/03/04 00:26:50;;;;;;;19.73;6.57;;;13.50;48.20;;;;;;6074633;29;20047;-78
2021/03/04 00:29:51;;;;;;;18.95;6.68;;;13.50;48.10;;;;;;6091825;29;20469;-80
2021/03/04 00:32:52;;;;;;;11.07;5.30;;;13.50;48.00;;;;;;6106486;29;20031;-78
2021/03/04 00:35:53;;;;;;;21.77;6.63;;;13.50;47.90;;;;;;6107623;29;20044;-79
2021/03/04 00:38:55;;;;;;;21.05;7.28;;;13.50;47.90;;;;;;6118768;29;20098;-78
2021/03/04 00:41:56;;;;;;;27.42;7.65;;;13.40;48.20;;;;;;6115102;29;20046;-79
2021/03/04 00:44:57;;;;;;;12.45;6.18;;;13.30;48.60;;;;;;6116248;29;20069;-79
2021/03/04 00:47:58;;;;;;;25.92;6.60;;;13.30;48.90;;;;;;6132725;29;20051;-79
2021/03/04 00:50:59;;;;;;;15.73;5.50;;;13.20;48.90;;;;;;6118843;29;20064;-79
2021/03/04 00:54:00;;;;;;;27.83;7.25;;;13.10;48.90;;;;;;6143615;29;20453;-78
2021/03/04 00:57:01;;;;;;;18.60;6.43;;;13.20;49.00;;;;;;6136413;29;20440;-79
2021/03/04 01:00:05;;;;;;;17.88;6.07;;;13.20;48.90;;;;;;6103099;29;20035;-79
2021/03/04 01:03:07;;;;;;;13.75;6.07;;;13.20;48.80;;;;;;6100584;29;20039;-79
2021/03/04 01:06:09;;;;;;;15.85;6.32;;;13.20;48.70;;;;;;6099661;29;20156;-79
2021/03/04 01:09:10;;;;;;;16.77;5.55;;;13.10;48.60;;;;;;6117838;29;20043;-79
2021/03/04 01:12:12;;;;;;;11.82;5.68;;;13.20;48.40;;;;;;6091015;29;20040;-79
2021/03/04 01:15:16;;;;;;;13.40;5.75;;;13.10;48.20;;;;;;6106036;29;20385;-79
2021/03/04 01:18:17;;;;;;;16.90;6.05;;;13.10;48.10;;;;;;6090313;29;20369;-79
2021/03/04 01:21:19;;;;;;;27.48;8.27;;;13.20;48.10;;;;;;6090818;29;20040;-79
2021/03/04 01:24:20;;;;;;;19.20;7.88;;;13.10;48.10;;;;;;6090598;29;20488;-79
2021/03/04 01:27:20;;;;;;;21.60;7.97;;;13.10;48.70;;;;;;6107089;29;20036;-79
2021/03/04 01:30:28;;;;;;;17.33;7.97;;;13.00;49.40;;;;;;6095682;29;20048;-79
2021/03/04 01:33:29;;;;;;;17.33;7.78;;;13.00;49.80;;;;;;6105783;29;20170;-79
2021/03/04 01:36:29;;;;;;;20.23;8.25;;;13.00;50.30;;;;;;6097408;29;20089;-79
2021/03/04 01:39:30;;;;;;;14.80;6.47;;;12.90;50.50;;;;;;6127264;29;20043;-79
2021/03/04 01:42:31;;;;;;;15.38;6.82;;;12.90;50.50;;;;;;6121521;29;20050;-79
2021/03/04 01:45:32;;;;;;;20.35;7.10;;;12.80;50.40;;;;;;6137160;29;20043;-78
2021/03/04 01:48:33;;;;;;;14.90;6.43;;;12.80;50.40;;;;;;6121104;29;20046;-79
2021/03/04 01:51:35;;;;;;;16.30;6.95;;;12.80;50.20;;;;;;6153791;29;20134;-80
2021/03/04 01:54:36;;;;;;;17.48;6.18;;;12.80;50.10;;;;;;6153320;29;20040;-80
2021/03/04 01:57:38;;;;;;;17.73;6.18;;;12.70;50.00;;;;;;6153906;29;20067;-80
2021/03/04 02:00:39;;;;;;;12.90;5.32;;;12.70;49.90;;;;;;6136773;29;20031;-80
2021/03/04 02:03:44;;;;;;;11.00;4.57;;;12.70;50.00;;;;;;6152645;29;20456;-80
2021/03/04 02:06:56;;;;;;;17.45;5.53;;;12.70;49.90;;;;;;6153785;29;20050;-79
2021/03/04 02:10:35;;;;;;;11.35;5.40;;;12.60;50.00;;;;;;6113407;29;20430;-80
2021/03/04 02:13:56;;;;;;;20.65;6.60;;;12.50;49.90;;;;;;6065923;29;20032;-79
2021/03/04 02:17:05;;;;;;;14.60;5.93;;;12.50;49.90;;;;;;6121278;29;20040;-79
2021/03/04 02:20:10;;;;;;;19.83;6.22;;;12.50;49.90;;;;;;6120739;29;20406;-79
2021/03/04 02:23:45;;;;;;;10.00;5.13;;;12.50;49.80;;;;;;6110196;29;20038;-80
2021/03/04 02:27:14;;;;;;;13.77;5.20;;;12.50;49.80;;;;;;6112329;29;20044;-79
2021/03/04 02:30:19;;;;;;;16.92;4.70;;;12.50;49.80;;;;;;6123153;29;20496;-80
2021/03/04 02:33:23;;;;;;;11.77;5.38;;;12.60;49.80;;;;;;6110759;29;20531;-80
2021/03/04 02:36:26;;;;;;;19.65;8.05;;;12.60;49.80;;;;;;6097920;29;20043;-80
2021/03/04 02:39:28;;;;;;;22.67;8.15;;;12.60;50.20;;;;;;6122070;29;20047;-80
2021/03/04 02:42:30;;;;;;;25.77;9.18;;;12.50;50.70;;;;;;6107104;29;20044;-79
2021/03/04 02:45:31;;;;;;;16.45;6.93;;;12.50;51.10;;;;;;6114294;29;20031;-81
2021/03/04 02:48:34;;;;;;;19.77;8.15;;;12.50;51.30;;;;;;6098911;29;20323;-79
2021/03/04 02:51:37;;;;;;;20.60;8.57;;;12.50;51.50;;;;;;6123487;29;20043;-80
2021/03/04 02:54:40;;;;;;;25.80;8.90;;;12.40;51.60;;;;;;6123209;29;20090;-79
2021/03/04 02:57:44;;;;;;;24.35;8.63;;;12.40;51.70;;;;;;6122781;29;20061;-80
2021/03/04 03:00:47;;;;;;;25.42;9.90;;;12.40;52.00;;;;;;6124070;29;20958;-80
2021/03/04 03:03:49;;;;;;;30.85;9.45;;;12.30;52.10;;;;;;6124512;29;20489;-80
2021/03/04 03:06:51;;;;;;;23.15;10.15;;;12.30;52.20;;;;;;6108303;29;20039;-80
2021/03/04 03:09:52;;;;;;;22.83;9.85;;;12.30;52.50;;;;;;6124205;29;20119;-80
2021/03/04 03:12:57;;;;;;;28.45;10.40;;;12.20;52.80;;;;;;6124349;29;20095;-80
2021/03/04 03:15:58;;;;;;;28.20;9.73;;;12.20;53.10;;;;;;6124432;29;20135;-79
2021/03/04 03:18:59;;;;;;;22.13;9.70;;;12.20;53.30;;;;;;6108925;29;20492;-79
2021/03/04 03:22:02;;;;;;;16.23;7.63;;;12.20;53.50;;;;;;6125479;29;20048;-78
2021/03/04 03:25:09;;;;;;;18.23;6.97;;;12.10;53.70;;;;;;6124538;29;20140;-80
2021/03/04 03:28:10;;;;;;;18.88;6.65;;;12.10;53.50;;;;;;6108420;29;20040;-79
2021/03/04 03:31:12;;;;;;;16.23;5.70;;;12.00;53.10;;;;;;6122252;29;20396;-79
2021/03/04 03:34:13;;;;;;;14.57;5.95;;;12.00;52.90;;;;;;6100893;29;20393;-79
2021/03/04 03:37:16;;;;;;;15.40;5.43;;;11.90;52.80;;;;;;6121983;29;20048;-79
2021/03/04 03:40:17;;;;;;;16.65;6.38;;;11.80;52.60;;;;;;6121592;29;20057;-78
2021/03/04 03:43:21;;;;;;;12.75;5.30;;;11.80;52.70;;;;;;6105915;29;20083;-80
2021/03/04 03:46:23;;;;;;;19.38;5.97;;;11.80;52.70;;;;;;6097435;29;20032;-79
2021/03/04 03:49:25;;;;;;;15.07;5.78;;;11.70;52.70;;;;;;6102941;29;20385;-79
2021/03/04 03:52:29;;;;;;;14.38;5.15;;;11.70;52.70;;;;;;6104645;29;20458;-81
2021/03/04 03:55:31;;;;;;;13.55;5.53;;;11.80;52.70;;;;;;6092688;29;20036;-78
2021/03/04 03:58:35;;;;;;;14.65;5.35;;;11.80;52.60;;;;;;6108679;29;20035;-79
2021/03/04 04:01:38;;;;;;;14.00;5.55;;;11.80;52.40;;;;;;6109671;29;20457;-79
2021/03/04 04:04:39;;;;;;;13.45;4.57;;;11.80;52.30;;;;;;6092728;29;20032;-81
2021/03/04 04:07:40;;;;;;;18.55;6.03;;;11.80;52.20;;;;;;6116682;29;20116;-82
2021/03/04 04:10:44;;;;;;;19.23;6.70;;;11.80;52.10;;;;;;6098783;29;20120;-80
2021/03/04 04:13:45;;;;;;;22.40;7.85;;;11.90;52.30;;;;;;6103494;29;20107;-81
2021/03/04 04:16:46;;;;;;;20.63;8.68;;;11.90;52.50;;;;;;6104554;29;20067;-80
2021/03/04 04:19:49;;;;;;;18.75;8.20;;;11.90;52.70;;;;;;6087166;29;20497;-81
2021/03/04 04:22:52;;;;;;;24.90;8.23;;;11.90;53.00;;;;;;6100747;29;20038;-80
2021/03/04 04:25:54;;;;;;;24.00;8.32;;;11.90;53.10;;;;;;6113464;29;20071;-79
2021/03/04 04:28:54;;;;;;;17.98;8.65;;;11.90;53.20;;;;;;6107426;29;20043;-80
2021/03/04 04:31:56;;;;;;;19.35;8.55;;;11.90;53.30;;;;;;6119496;29;20044;-80
2021/03/04 04:34:57;;;;;;;26.48;10.15;;;12.00;53.40;;;;;;6108071;29;20052;-79
2021/03/04 04:37:58;;;;;;;20.63;9.77;;;12.00;53.70;;;;;;6121216;29;20062;-80
2021/03/04 04:40:59;;;;;;;21.67;9.50;;;12.00;53.90;;;;;;6108954;29;20052;-80
2021/03/04 04:44:00;;;;;;;30.13;9.90;;;11.90;54.10;;;;;;6104435;29;20032;-80
2021/03/04 04:47:01;;;;;;;23.88;9.32;;;11.90;54.30;;;;;;6103577;29;20059;-81
2021/03/04 04:50:05;;;;;;;30.73;10.73;;;11.90;54.30;;;;;;6105371;29;20040;-80
2021/03/04 04:53:06;;;;;;;18.27;7.68;;;11.90;54.40;;;;;;6114677;29;20036;-79
2021/03/04 04:56:07;;;;;;;14.75;6.40;;;11.90;54.40;;;;;;6133756;29;20036;-80
2021/03/04 04:59:08;;;;;;;13.27;6.82;;;11.90;54.20;;;;;;6142584;29;20048;-80
2021/03/04 05:02:09;;;;;;;17.63;6.07;;;11.80;54.00;;;;;;6141245;29;20039;-79
2021/03/04 05:05:10;;;;;;;16.65;5.47;;;11.70;53.80;;;;;;6130419;29;20457;-80
2021/03/04 05:08:11;;;;;;;15.90;5.72;;;11.70;53.80;;;;;;6131614;29;20043;-79
2021/03/04 05:11:12;;;;;;;10.73;4.90;;;11.60;53.70;;;;;;6123807;29;20040;-80
2021/03/04 05:14:13;;;;;;;15.05;5.82;;;11.50;53.60;;;;;;6102310;29;20116;-80
2021/03/04 05:17:14;;;;;;;20.73;5.75;;;11.50;53.70;;;;;;6128873;29;20035;-80
2021/03/04 05:20:16;;;;;;;13.32;5.70;;;11.50;53.70;;;;;;6119472;29;20036;-79
2021/03/04 05:23:17;;;;;;;19.00;5.43;;;11.40;53.60;;;;;;6107097;29;20047;-79
2021/03/04 05:26:19;;;;;;;15.60;5.45;;;11.40;53.50;;;;;;6116818;29;20121;-79
2021/03/04 05:29:20;;;;;;;21.80;5.90;;;11.40;53.40;;;;;;6128270;29;20028;-79
2021/03/04 05:32:21;;;;;;;14.93;5.28;;;11.50;53.30;;;;;;6112165;29;20043;-80
2021/03/04 05:35:21;;;;;;;13.90;5.90;;;11.50;53.00;;;;;;6112649;29;20461;-79
2021/03/04 05:38:23;;;;;;;12.30;4.90;;;11.50;52.80;;;;;;6113188;29;20099;-80
2021/03/04 05:41:25;;;;;;;12.50;4.97;;;11.60;52.70;;;;;;6098170;29;20039;-79
2021/03/04 05:44:27;;;;;;;11.82;5.25;;;11.60;52.40;;;;;;6123413;29;20043;-79
2021/03/04 05:47:29;;;;;;;12.45;4.63;;;11.60;52.20;;;;;;6126706;29;20040;-79
2021/03/04 05:50:31;;;;;;;11.93;4.10;;;11.60;52.00;;;;;;6115218;29;20473;-79
2021/03/04 05:53:33;;;;;;;13.15;4.25;;;11.50;51.80;;;;;;6136781;29;20066;-79
2021/03/04 05:56:40;;;;;;;15.60;4.90;;;11.50;51.70;;;;;;6130522;29;20087;-81
2021/03/04 05:59:42;;;;;;;14.32;5.50;;;11.50;51.60;;;;;;6130382;29;20087;-80
2021/03/04 06:02:45;;;;;;;14.90;6.20;;;11.50;51.70;;;;;;6136742;28;20031;-82
2021/03/04 06:05:49;;;;;;;18.88;5.63;;;11.50;51.90;;;;;;6105874;29;20043;-82
2021/03/04 06:08:49;;;;;;;15.43;4.95;;;11.50;52.20;;;;;;6120005;29;20469;-82
2021/03/04 06:11:50;;;;;;;17.23;5.10;;;11.40;52.30;;;;;;6128500;29;20039;-80
2021/03/04 06:14:51;;;;;;;11.40;5.28;;;11.40;52.40;;;;;;6130811;29;20417;-81
2021/03/04 06:17:57;;;;;;;9.98;4.88;;;11.30;52.40;;;;;;6109800;29;20433;-78
2021/03/04 06:20:57;;;;;;;9.80;4.35;;;11.30;52.40;;;;;;6104740;29;20111;-79
2021/03/04 06:23:58;;;;;;;12.65;5.03;;;11.30;52.50;;;;;;6091666;29;20051;-78
2021/03/04 06:27:00;;;;;;;11.23;4.35;;;11.30;52.50;;;;;;6107836;29;20096;-79
2021/03/04 06:30:04;;;;;;;7.95;3.60;;;11.30;52.40;;;;;;6107170;29;20036;-79
2021/03/04 06:33:10;;;;;;;12.82;4.40;;;11.30;52.30;;;;;;6102627;29;20033;-79
2021/03/04 06:36:13;;;;;;;10.77;4.25;;;11.30;52.10;;;;;;6112705;29;20055;-79
2021/03/04 06:39:14;;;;;;;19.05;4.93;;;11.30;52.10;;;;;;6110974;29;20426;-77
2021/03/04 06:42:15;;;;;;;15.73;6.22;;;11.30;52.00;;;;;;6127370;29;20040;-77
2021/03/04 06:45:31;;;;;;;12.23;4.93;;;11.30;52.00;;;;;;6126071;29;20036;-78
2021/03/04 06:48:32;;;;;;;9.18;4.82;;;11.30;52.20;;;;;;6127989;29;20135;-78
2021/03/04 06:51:45;;;;;;;11.70;4.72;;;11.30;52.10;;;;;;6128053;29;20461;-79
2021/03/04 06:54:46;;;;;;;13.25;4.43;;;11.30;52.10;;;;;;6096784;29;20047;-79
2021/03/04 06:58:01;;;;;;;13.52;5.20;;;11.40;52.00;;;;;;6128047;29;20044;-78
2021/03/04 07:01:13;;;;;;;6.00;3.25;;;11.40;52.00;;;;;;6129517;29;20036;-77
2021/03/04 07:04:15;;;;;;;7.10;3.20;;;11.40;51.60;;;;;;6113040;29;20044;-77
2021/03/04 07:07:17;;;;;;;10.00;4.00;;;11.40;51.30;;;;;;6111105;29;20126;-77
2021/03/04 07:10:20;;;;;;;10.57;3.58;;;11.40;51.10;;;;;;6114455;29;20040;-77
2021/03/04 07:13:21;;;;;;;7.88;3.72;;;11.40;51.10;;;;;;6079898;29;20047;-79
2021/03/04 07:16:29;;;;;;;11.40;4.63;;;11.50;51.10;;;;;;6088894;29;20056;-78
2021/03/04 07:19:34;;;;;;;15.73;4.45;;;11.50;51.00;;;;;;6121442;29;20032;-78
2021/03/04 07:22:38;;;;;;;10.15;4.55;;;11.50;50.90;;;;;;6106263;29;20485;-77
2021/03/04 07:25:40;;;;;;;9.95;4.07;;;11.50;50.80;;;;;;6103317;29;20202;-78
2021/03/04 07:28:43;;;;;;;22.45;5.57;;;11.50;50.90;;;;;;6104238;29;20085;-78
2021/03/04 07:31:46;;;;;;;12.63;5.35;;;11.50;50.90;;;;;;6101560;29;20385;-77
2021/03/04 07:34:47;;;;;;;17.40;6.18;;;11.60;50.70;;;;;;6104487;29;20051;-77
2021/03/04 07:37:48;;;;;;;22.08;5.57;;;11.60;50.70;;;;;;6090022;29;20130;-77
2021/03/04 07:41:19;;;;;;;14.93;4.88;;;11.60;50.70;;;;;;6130451;29;20040;-78
2021/03/04 07:44:29;;;;;;;21.27;6.07;;;11.70;50.60;;;;;;6031949;29;20436;-76
2021/03/04 07:47:30;;;;;;;10.40;5.43;;;11.70;50.40;;;;;;6020430;29;20483;-79
2021/03/04 07:50:31;;;;;;;12.13;5.22;;;11.70;50.30;;;;;;6035599;29;20472;-77
2021/03/04 07:53:40;;;;;;;10.05;5.22;;;11.80;50.20;;;;;;6041584;29;20042;-79
2021/03/04 07:56:42;;;;;;;15.52;5.20;;;11.80;50.10;;;;;;6041075;29;20037;-77
2021/03/04 08:00:04;;;;;;;12.25;4.80;;;11.80;49.90;;;;;;6033946;29;20124;-79
2021/03/04 08:03:13;;;;;;;17.23;5.55;;;11.80;49.80;;;;;;6027134;29;20041;-78
2021/03/04 08:06:14;;;;;;;31.67;4.55;;;11.80;49.80;;;;;;6026794;29;20098;-78
2021/03/04 08:09:32;;;;;;;14.98;4.20;;;11.90;50.00;;;;;;6027201;29;20462;-77
2021/03/04 08:12:43;;;;;;;15.90;4.43;;;11.90;49.80;;;;;;6025585;29;20049;-77
2021/03/04 08:15:45;;;;;;;16.63;4.47;;;11.90;49.60;;;;;;6008789;29;20286;-77
2021/03/04 08:18:56;;;;;;;10.68;4.47;;;12.00;49.60;;;;;;6018718;29;20041;-77
2021/03/04 08:22:06;;;;;;;16.48;4.22;;;12.00;49.50;;;;;;6103826;29;20054;-77
2021/03/04 08:25:08;;;;;;;10.68;4.55;;;12.10;49.40;;;;;;6121377;29;20036;-77
2021/03/04 08:28:10;;;;;;;16.77;5.32;;;12.10;49.30;;;;;;6110904;29;20031;-77
2021/03/04 08:31:11;;;;;;;16.45;5.47;;;12.20;49.20;;;;;;6125211;29;20046;-80
2021/03/04 08:34:15;;;;;;;10.10;4.03;;;12.30;49.10;;;;;;6125526;29;20036;-78
2021/03/04 08:37:22;;;;;;;12.88;4.80;;;12.30;48.90;;;;;;6097040;29;20108;-77
2021/03/04 08:40:23;;;;;;;24.48;5.47;;;12.40;48.80;;;;;;6096240;29;20056;-77
2021/03/04 08:43:27;;;;;;;10.27;4.82;;;12.40;48.50;;;;;;6094703;29;20040;-79
2021/03/04 08:46:31;;;;;;;18.95;4.78;;;12.50;48.30;;;;;;6094468;29;20036;-77
2021/03/04 08:49:31;;;;;;;11.68;4.55;;;12.60;48.20;;;;;;6093409;29;20489;-77
2021/03/04 08:52:34;;;;;;;13.45;5.07;;;12.60;48.00;;;;;;6080320;29;20033;-77
2021/03/04 08:55:46;;;;;;;26.70;7.07;;;12.70;47.90;;;;;;6101183;29;20036;-78
2021/03/04 08:58:46;;;;;;;15.85;5.68;;;12.80;47.90;;;;;;6102439;29;20529;-77
2021/03/04 09:01:48;;;;;;;15.88;5.15;;;12.90;47.60;;;;;;6102309;29;20040;-79
2021/03/04 09:04:51;;;;;;;13.98;5.55;;;13.00;47.60;;;;;;6085723;29;20032;-78
2021/03/04 09:07:52;;;;;;;23.67;6.50;;;13.10;47.50;;;;;;6103964;29;20458;-78
2021/03/04 09:10:53;;;;;;;19.58;7.13;;;13.30;47.30;;;;;;6103524;29;20036;-77
2021/03/04 09:14:07;;;;;;;16.13;5.63;;;13.40;47.00;;;;;;6102555;29;20044;-77
2021/03/04 09:17:08;;;;;;;22.05;5.97;;;13.60;47.00;;;;;;6083031;29;20138;-78
2021/03/04 09:20:15;;;;;;;18.98;6.07;;;13.70;46.50;;;;;;6103423;29;20383;-78
2021/03/04 09:23:17;;;;;;;15.23;6.45;;;13.80;46.80;;;;;;6101536;29;20075;-77
2021/03/04 09:26:18;;;;;;;17.90;5.88;;;13.90;45.90;;;;;;6102833;29;20047;-78
2021/03/04 09:29:20;;;;;;;11.65;5.80;;;14.00;45.80;;;;;;6103086;29;20075;-77
2021/03/04 09:32:32;;;;;;;16.83;6.15;;;14.10;45.40;;;;;;6099814;29;20063;-78
2021/03/04 09:35:33;;;;;;;17.83;6.28;;;14.20;45.20;;;;;;6104746;29;20058;-77
2021/03/04 09:38:36;;;;;;;16.20;5.95;;;14.30;45.10;;;;;;6116799;29;20090;-77
2021/03/04 09:41:38;;;;;;;16.33;5.90;;;14.40;44.80;;;;;;6124280;29;20040;-78
2021/03/04 09:44:56;;;;;;;18.80;6.40;;;14.40;44.30;;;;;;6124785;29;20349;-77
2021/03/04 09:47:57;;;;;;;15.85;5.53;;;14.40;44.10;;;;;;6103992;29;20048;-78
2021/03/04 09:50:59;;;;;;;13.00;5.60;;;14.50;44.00;;;;;;6120761;29;20075;-79
2021/03/04 09:54:02;;;;;;;16.17;6.38;;;14.60;43.90;;;;;;6103878;29;20036;-77
2021/03/04 09:57:08;;;;;;;16.30;5.63;;;14.60;43.70;;;;;;6114119;29;20031;-77
2021/03/04 10:00:16;;;;;;;13.60;6.05;;;14.70;43.70;;;;;;6124431;29;20032;-78
2021/03/04 10:03:18;;;;;;;11.00;4.55;;;14.80;43.40;;;;;;6115743;29;20050;-77
2021/03/04 10:06:21;;;;;;;15.57;5.30;;;14.90;43.20;;;;;;6123023;29;20103;-78
2021/03/04 10:09:27;;;;;;;17.45;6.75;;;15.00;43.00;;;;;;6118289;29;20466;-77
2021/03/04 10:12:28;;;;;;;16.95;6.25;;;15.00;42.90;;;;;;6125969;29;20039;-77
2021/03/04 10:15:34;;;;;;;19.60;5.68;;;15.10;42.70;;;;;;6109841;29;20337;-78
2021/03/04 10:18:35;;;;;;;13.35;4.15;;;15.10;42.50;;;;;;6130588;29;20043;-77
2021/03/04 10:21:36;;;;;;;13.93;5.15;;;15.20;42.60;;;;;;6115559;29;20310;-78
2021/03/04 10:24:37;;;;;;;18.60;4.80;;;15.40;42.50;;;;;;6112260;29;20103;-79
2021/03/04 10:27:39;;;;;;;12.15;5.05;;;15.50;42.30;;;;;;6104955;29;20422;-77
2021/03/04 10:30:40;;;;;;;11.65;5.50;;;15.60;42.10;;;;;;6091778;29;20036;-78
2021/03/04 10:33:41;;;;;;;13.52;5.00;;;15.70;42.00;;;;;;6099537;29;20062;-78
2021/03/04 10:36:42;;;;;;;12.43;6.13;;;15.90;41.60;;;;;;6094973;29;20059;-78
2021/03/04 10:39:43;;;;;;;12.63;5.82;;;16.00;41.20;;;;;;6092013;29;20446;-78
2021/03/04 10:42:44;;;;;;;21.67;6.32;;;16.20;41.10;;;;;;6107780;29;20051;-78
2021/03/04 10:45:45;;;;;;;19.85;6.50;;;16.50;40.80;;;;;;6110076;29;20058;-79
2021/03/04 10:48:46;;;;;;;17.17;7.05;;;16.80;40.50;;;;;;6112512;29;20035;-77
2021/03/04 10:51:47;;;;;;;17.17;6.38;;;17.10;40.20;;;;;;6105935;29;20111;-79
2021/03/04 10:54:49;;;;;;;18.13;6.80;;;17.40;39.80;;;;;;6124555;29;20360;-77
2021/03/04 10:57:50;;;;;;;20.60;7.30;;;17.70;39.20;;;;;;6106981;29;20046;-77
2021/03/04 11:00:51;;;;;;;16.25;6.25;;;17.80;38.90;;;;;;6091010;29;20129;-79
2021/03/04 11:03:52;;;;;;;20.15;5.25;;;18.20;38.60;;;;;;6097729;29;20062;-79
2021/03/04 11:06:53;;;;;;;13.20;5.28;;;18.40;38.10;;;;;;6092311;29;20039;-78
2021/03/04 11:09:54;;;;;;;20.08;6.03;;;18.70;37.80;;;;;;6091091;29;20047;-78
2021/03/04 11:12:55;;;;;;;11.23;5.40;;;18.90;37.30;;;;;;6097986;29;20040;-78
2021/03/04 11:15:56;;;;;;;17.42;5.30;;;19.20;36.70;;;;;;6101734;29;20040;-78
2021/03/04 11:18:57;;;;;;;19.42;5.50;;;19.30;36.00;;;;;;6102087;29;20043;-77
2021/03/04 11:21:59;;;;;;;12.27;5.55;;;19.50;35.50;;;;;;6091624;29;20040;-79
2021/03/04 11:25:00;;;;;;;17.60;5.10;;;19.60;35.40;;;;;;6097756;29;20056;-79
2021/03/04 11:28:01;;;;;;;33.65;13.07;;;19.80;35.40;;;;;;6097014;29;20457;-78
2021/03/04 11:31:02;;;;;;;20.10;6.75;;;20.00;35.30;;;;;;6100856;29;20405;-77
2021/03/04 11:34:04;;;;;;;18.67;5.57;;;20.30;35.10;;;;;;6085024;29;20072;-78
2021/03/04 11:37:06;;;;;;;16.65;5.00;;;20.60;34.60;;;;;;6088273;29;20080;-78
2021/03/04 11:40:08;;;;;;;16.00;5.15;;;20.90;33.90;;;;;;6116625;29;20051;-79
2021/03/04 11:43:10;;;;;;;9.80;4.07;;;21.10;33.00;;;;;;6102024;29;20040;-79
2021/03/04 11:46:12;;;;;;;12.50;4.07;;;21.30;32.70;;;;;;6129678;29;20129;-78
2021/03/04 11:49:13;;;;;;;11.77;4.10;;;21.70;31.80;;;;;;6114882;29;20394;-78
2021/03/04 11:52:14;;;;;;;9.77;3.90;;;22.00;30.50;;;;;;6103900;29;20044;-78
2021/03/04 11:55:15;;;;;;;11.07;2.92;;;22.40;29.60;;;;;;6110926;29;20067;-77
2021/03/04 11:58:16;;;;;;;11.32;3.20;;;22.70;28.50;;;;;;6120792;29;20056;-77
2021/03/04 12:01:18;;;;;;;17.52;4.03;;;23.00;27.90;;;;;;6122551;29;20052;-79
2021/03/04 12:04:19;;;;;;;13.10;4.03;;;23.40;28.00;;;;;;6122112;29;20036;-79
2021/03/04 12:07:21;;;;;;;10.88;3.95;;;23.80;27.00;;;;;;6108872;29;20035;-79
2021/03/04 12:10:22;;;;;;;9.20;3.55;;;24.20;26.30;;;;;;6118135;29;20051;-78
2021/03/04 12:13:24;;;;;;;15.43;4.05;;;24.60;25.60;;;;;;6081552;29;20517;-78
2021/03/04 12:16:25;;;;;;;7.85;3.63;;;24.90;25.20;;;;;;6102622;29;20042;-78
2021/03/04 12:19:26;;;;;;;11.50;4.07;;;25.00;24.80;;;;;;6091597;29;20032;-80
2021/03/04 12:22:27;;;;;;;12.23;3.80;;;25.10;24.80;;;;;;6102095;29;20036;-77
2021/03/04 12:25:28;;;;;;;10.27;4.15;;;25.20;24.70;;;;;;6099407;29;20040;-78
2021/03/04 12:28:29;;;;;;;9.00;3.70;;;25.30;24.10;;;;;;6080144;29;20051;-77
2021/03/04 12:31:30;;;;;;;17.10;4.40;;;25.30;24.30;;;;;;6099460;29;20040;-77
2021/03/04 12:34:31;;;;;;;8.57;3.95;;;25.40;23.80;;;;;;6098526;29;20108;-77
2021/03/04 12:37:32;;;;;;;9.93;4.30;;;25.40;23.90;;;;;;6091210;29;20373;-77
2021/03/04 12:40:34;;;;;;;12.35;4.15;;;25.40;24.20;;;;;;6118214;29;20110;-77
2021/03/04 12:43:35;;;;;;;16.75;5.72;;;25.40;24.30;;;;;;6123738;29;20035;-78
2021/03/04 12:46:36;;;;;;;11.25;4.55;;;25.60;24.40;;;;;;6123057;29;20114;-77
2021/03/04 12:49:37;;;;;;;11.65;4.63;;;25.70;24.40;;;;;;6107246;29;20039;-77
2021/03/04 12:52:38;;;;;;;19.30;4.93;;;25.70;24.40;;;;;;6122640;29;20036;-77
2021/03/04 12:55:39;;;;;;;11.95;4.43;;;25.90;24.30;;;;;;6123503;29;20042;-76
2021/03/04 12:58:40;;;;;;;19.70;4.95;;;25.70;24.40;;;;;;6066534;29;20091;-77
2021/03/04 13:01:41;;;;;;;9.93;4.28;;;25.30;24.70;;;;;;6111846;29;20039;-78
2021/03/04 13:04:44;;;;;;;14.48;4.32;;;24.80;24.90;;;;;;6108033;29;20046;-76
2021/03/04 13:07:45;;;;;;;14.90;5.00;;;24.50;25.60;;;;;;6088948;29;20043;-77
2021/03/04 13:10:46;;;;;;;12.95;5.40;;;24.60;25.60;;;;;;6100529;29;20040;-78
2021/03/04 13:13:47;;;;;;;11.52;4.70;;;24.90;25.40;;;;;;6105917;29;20123;-77
2021/03/04 13:16:48;;;;;;;17.10;4.82;;;24.80;25.30;;;;;;6109428;29;20043;-77
2021/03/04 13:19:49;;;;;;;12.13;4.15;;;24.30;25.80;;;;;;6109382;29;20043;-76
2021/03/04 13:22:50;;;;;;;14.50;4.15;;;23.70;26.40;;;;;;6126924;29;20373;-76
2021/03/04 13:25:51;;;;;;;22.52;4.32;;;23.10;26.90;;;;;;6126141;29;20127;-77
2021/03/04 13:28:52;;;;;;;21.48;4.72;;;22.60;27.50;;;;;;6094301;29;20381;-75
2021/03/04 13:31:54;;;;;;;8.70;3.97;;;22.20;28.00;;;;;;6109532;29;20040;-78
2021/03/04 13:34:55;;;;;;;24.30;3.70;;;22.00;28.20;;;;;;6102839;29;20162;-78
2021/03/04 13:37:56;;;;;;;17.08;4.90;;;21.70;28.30;;;;;;6107585;29;20120;-77
2021/03/04 13:40:57;;;;;;;19.25;4.72;;;21.40;28.80;;;;;;6100472;29;20059;-77
2021/03/04 13:43:58;;;;;;;20.88;4.68;;;21.10;29.30;;;;;;6074508;29;20350;-77
2021/03/04 13:46:59;;;;;;;9.48;4.43;;;21.00;29.70;;;;;;6070114;29;20064;-76
2021/03/04 13:50:01;;;;;;;14.65;3.90;;;20.80;30.00;;;;;;6108504;29;20040;-76
2021/03/04 13:53:35;;;;;;;15.45;4.43;;;20.70;30.30;;;;;;6087589;29;20047;-77
2021/03/04 13:56:36;;;;;;;14.70;4.30;;;20.50;30.50;;;;;;6110783;29;20096;-78
2021/03/04 13:59:37;;;;;;;23.27;5.00;;;20.40;30.70;;;;;;6083262;29;20044;-77
2021/03/04 14:02:38;;;;;;;22.20;4.30;;;20.40;30.90;;;;;;6061375;29;20033;-78
2021/03/04 14:05:39;;;;;;;12.18;4.05;;;20.40;31.30;;;;;;6085311;29;20054;-77
2021/03/04 14:08:40;;;;;;;14.93;5.00;;;20.30;31.20;;;;;;6092732;29;20028;-78
2021/03/04 14:11:42;;;;;;;15.48;4.60;;;20.20;31.20;;;;;;6053503;29;20437;-78
2021/03/04 14:15:27;;;;;;;11.57;4.10;;;20.20;31.50;;;;;;6083461;29;20047;-77
2021/03/04 14:18:28;;;;;;;14.07;4.57;;;20.10;31.70;;;;;;6097977;29;20106;-78
2021/03/04 14:21:29;;;;;;;21.10;4.68;;;20.10;31.70;;;;;;6061943;29;20159;-76
2021/03/04 14:24:30;;;;;;;13.35;4.45;;;20.10;32.00;;;;;;6064457;29;20077;-79
2021/03/04 14:27:30;;;;;;;13.07;4.32;;;20.10;32.10;;;;;;6084983;29;20051;-77
2021/03/04 14:30:31;;;;;;;23.27;8.52;;;20.00;32.00;;;;;;6091432;29;20044;-77
2021/03/04 14:33:32;;;;;;;21.40;4.38;;;20.00;31.90;;;;;;6096413;29;20043;-76
2021/03/04 14:36:33;;;;;;;26.38;5.32;;;19.90;32.00;;;;;;6116591;29;20078;-78
2021/03/04 14:39:36;;;;;;;16.50;4.05;;;19.90;32.00;;;;;;6123986;29;20036;-78
2021/03/04 14:42:37;;;;;;;15.68;4.25;;;19.90;32.10;;;;;;6109384;29;20039;-77
2021/03/04 14:45:37;;;;;;;8.57;3.35;;;19.90;32.10;;;;;;6092100;29;20067;-76
2021/03/04 14:48:38;;;;;;;15.75;3.85;;;19.90;32.00;;;;;;6094891;29;20044;-77
2021/03/04 14:51:39;;;;;;;8.85;3.60;;;19.90;32.10;;;;;;6086362;29;20412;-77
2021/03/04 14:54:40;;;;;;;18.77;4.93;;;19.90;32.00;;;;;;6085826;29;20051;-77
2021/03/04 14:57:41;;;;;;;12.00;4.45;;;20.00;31.90;;;;;;6085415;29;20040;-76
2021/03/04 15:00:42;;;;;;;8.02;3.38;;;19.90;32.00;;;;;;6097581;29;20147;-76
2021/03/04 15:03:43;;;;;;;10.55;3.75;;;19.80;31.90;;;;;;6118719;29;20032;-78
2021/03/04 15:06:44;;;;;;;12.65;3.67;;;19.80;31.90;;;;;;6085011;29;20032;-77
2021/03/04 15:09:45;;;;;;;8.75;3.58;;;19.90;32.00;;;;;;6095478;29;20454;-77
2021/03/04 15:12:46;;;;;;;7.90;3.28;;;19.90;31.90;;;;;;6089725;29;20111;-78
2021/03/04 15:15:47;;;;;;;9.05;3.13;;;19.90;31.70;;;;;;6110382;29;20035;-77
2021/03/04 15:18:52;;;;;;;12.57;4.03;;;20.00;31.70;;;;;;6100127;29;20116;-78
2021/03/04 15:21:53;;;;;;;11.85;3.40;;;20.00;31.70;;;;;;6107587;29;20035;-77
2021/03/04 15:24:54;;;;;;;10.57;3.50;;;19.90;31.50;;;;;;6124499;29;20062;-77
2021/03/04 15:27:55;;;;;;;11.10;3.55;;;19.90;31.60;;;;;;6098847;29;20130;-77
2021/03/04 15:30:57;;;;;;;21.83;4.00;;;19.90;31.80;;;;;;6100095;29;20047;-77
2021/03/04 15:33:58;;;;;;;11.48;3.63;;;19.80;31.80;;;;;;6099316;29;20032;-77
2021/03/04 15:36:59;;;;;;;15.35;4.22;;;19.70;31.70;;;;;;6099224;29;20047;-76
2021/03/04 15:40:06;;;;;;;13.20;4.00;;;19.70;31.90;;;;;;6085497;29;20047;-76
2021/03/04 15:43:08;;;;;;;17.92;3.83;;;19.70;32.00;;;;;;6084981;29;20040;-80